Ashiya Air Base, Japan

12:39 AM JST on September 04, 2015 (GMT +0900)
Akama Station(JR KYUSHU RAILWAY) | | Change Station
CLOSE
Current Station
Personal Weather Station
Location: Munakata, FUKUOKA
Elevation: 33 ft
Nearby Weather Stations

Elev 33 ft 33.80 °N, 130.57 °E | Updated 2 seconds ago

Scattered Clouds
Scattered Clouds
74.2 °F
Feels Like 73 °F
N
1.2
Wind Variable Wind from SSE
Gusts 0.0 mph

Today
High -- | Low -- °F
--% Chance of Precip.
Yesterday
High -- | Low -- °F
Precip. -- in
5:52 AM 6:40 PM
Waning Gibbous, 69% visible
Pressure 29.86 in
Visibility 6.2 miles
Clouds Few 1500 ft
Scattered Clouds 3000 ft
Heat Index 73 °F
Dew Point 70 °F
Humidity 88%
Rainfall 0.00 in
Snow Depth Not available.
UV 0 out of 12
Pollen Not available.
Air Quality Not available.
Flu Activity Not available.
METAR RJFF 031530Z 11003KT 070V150 9999 FEW015 SCT030 22/20 Q1011 RMK 1CU015 3CU030 A2988
Pressure 29.86 in
Visibility 6.2 miles
Clouds Few 1500 ft
Scattered Clouds 3000 ft
Heat Index 73 °F
Dew Point 70 °F
Humidity 88%
Rainfall 0.00 in
Snow Depth Not available.
UV 0 out of 12
Pollen Not available.
Air Quality Not available.
Flu Activity Not available.
METAR RJFF 031530Z 11003KT 070V150 9999 FEW015 SCT030 22/20 Q1011 RMK 1CU015 3CU030 A2988

10-Day Weather Forecast

×

Almanac

Astronomy

Sep. 04, 2015 Rise Set
Actual Time
Civil Twilight
Nautical Twilight
Astronomical Twilight
Moon
Length of Visible Light
Length of Day
Tomorrow will be .
, % of the Moon is Illuminated

Today's Extremes

Country Highs Country Lows

Community

WunderPhotos

Upload Photos

1,851,972 photos uploaded!

WunderBlogs® & News

Nearby

Air Quality

  Air Quality AQ Index Pollutant
Not available.

Snow Depth

Station Depth Elevation

Earthquake Activity

City Distance Mag. Time & Date
Minimum magnitude displayed is 2.5.

Coastal Water Temperatures

Place Temperature

Stations

Nearby Weather Stations

Station Location Temp. Windchill Dew Point Humidity Wind Precip. Elev Updated Type